createdAt,value
2023-01-06T00:00:23.097Z,98721.78
2023-01-06T00:02:53.116Z,98704.78
2023-01-06T00:05:25.979Z,98709.72
2023-01-06T00:07:56.380Z,98702.91
2023-01-06T00:10:26.983Z,98701.13
2023-01-06T00:12:56.951Z,98701.81
2023-01-06T00:15:27.030Z,98699.09
2023-01-06T00:17:57.101Z,98701.66
2023-01-06T00:20:29.791Z,98694.03
2023-01-06T00:22:59.708Z,98700.53
2023-01-06T00:25:29.721Z,98690.38
2023-01-06T00:28:02.529Z,98695.75
2023-01-06T00:30:32.532Z,98685.28
2023-01-06T00:33:02.482Z,98680.81
2023-01-06T00:35:35.141Z,98684.31
2023-01-06T00:38:05.499Z,98680.16
2023-01-06T00:40:35.467Z,98686.97
2023-01-06T00:43:05.864Z,98678.41
2023-01-06T00:45:36.122Z,98681.22
2023-01-06T00:48:06.604Z,98683.94
2023-01-06T00:50:39.169Z,98673.75
2023-01-06T00:53:10.503Z,98670.88
2023-01-06T00:55:40.455Z,98674.22
2023-01-06T00:58:10.821Z,98668.03
2023-01-06T01:00:42.273Z,98673.13
2023-01-06T01:03:12.378Z,98672.38
2023-01-06T01:05:44.921Z,98666.06
2023-01-06T01:08:14.826Z,98666.22
2023-01-06T01:10:44.908Z,98671.00
2023-01-06T01:13:12.370Z,98670.06
2023-01-06T01:15:42.635Z,98667.97
2023-01-06T01:18:12.626Z,98672.75
2023-01-06T01:20:48.976Z,98670.38
2023-01-06T01:23:18.941Z,98668.31
2023-01-06T01:25:48.896Z,98663.53
2023-01-06T01:28:18.959Z,98671.94
2023-01-06T01:30:50.117Z,98666.22
2023-01-06T01:33:20.258Z,98665.63
2023-01-06T01:35:52.793Z,98665.13
2023-01-06T01:38:22.734Z,98658.47
2023-01-06T01:40:54.144Z,98666.72
2023-01-06T01:43:24.313Z,98655.13
2023-01-06T01:45:58.741Z,98653.25
2023-01-06T01:48:34.300Z,98656.88
2023-01-06T01:51:12.152Z,98654.19
2023-01-06T01:53:46.897Z,98645.91
2023-01-06T01:56:25.089Z,98648.94
2023-01-06T01:59:01.919Z,98652.28
2023-01-06T02:01:34.233Z,98649.38
2023-01-06T02:04:05.608Z,98650.03
2023-01-06T02:06:38.611Z,98642.75
2023-01-06T02:09:17.632Z,98644.16
2023-01-06T02:11:51.259Z,98647.03
2023-01-06T02:14:26.036Z,98650.34
2023-01-06T02:17:13.952Z,98648.94
2023-01-06T02:20:37.652Z,98641.97
2023-01-06T02:23:46.812Z,98648.16
2023-01-06T02:27:31.518Z,98650.06
2023-01-06T02:31:16.359Z,98643.22
2023-01-06T02:33:58.384Z,98632.28
2023-01-06T02:36:45.027Z,98639.56
2023-01-06T02:39:34.131Z,98635.75
2023-01-06T02:42:17.480Z,98631.31
2023-01-06T02:45:05.454Z,98620.22
2023-01-06T02:47:44.296Z,98626.25
2023-01-06T02:50:27.896Z,98629.75
2023-01-06T02:53:11.633Z,98621.78
2023-01-06T02:55:49.330Z,98622.91
2023-01-06T02:58:34.218Z,98631.31
2023-01-06T03:01:14.338Z,98620.19
2023-01-06T03:03:48.719Z,98625.28
2023-01-06T03:06:29.964Z,98637.03
2023-01-06T03:09:04.394Z,98623.22
2023-01-06T03:11:44.187Z,98625.75
2023-01-06T03:14:25.121Z,98622.72
2023-01-06T03:16:56.286Z,98624.94
2023-01-06T03:19:27.920Z,98612.06
2023-01-06T03:22:03.472Z,98607.94
2023-01-06T03:24:33.501Z,98610.97
2023-01-06T03:27:04.067Z,98609.53
2023-01-06T03:29:35.382Z,98613.97
2023-01-06T03:32:14.828Z,98608.09
2023-01-06T03:35:07.775Z,98605.22
2023-01-06T03:37:55.051Z,98607.63
2023-01-06T03:40:36.724Z,98613.22
2023-01-06T03:43:21.160Z,98607.63
2023-01-06T03:46:05.631Z,98614.75
2023-01-06T03:48:58.153Z,98604.16
2023-01-06T03:51:47.357Z,98604.50
2023-01-06T03:54:38.271Z,98611.66
2023-01-06T03:57:14.414Z,98608.97
2023-01-06T03:59:50.892Z,98599.13
2023-01-06T04:02:24.355Z,98603.22
2023-01-06T04:05:12.074Z,98605.41
2023-01-06T04:07:45.295Z,98604.88
2023-01-06T04:10:23.176Z,98605.47
2023-01-06T04:12:56.861Z,98608.28
2023-01-06T04:15:32.675Z,98598.44
2023-01-06T04:18:04.043Z,98605.06
2023-01-06T04:20:37.356Z,98596.31
2023-01-06T04:23:16.565Z,98600.56
2023-01-06T04:25:49.960Z,98605.94
2023-01-06T04:28:27.587Z,98596.63
2023-01-06T04:31:01.711Z,98587.31
2023-01-06T04:33:33.529Z,98594.72
2023-01-06T04:36:07.031Z,98580.44
2023-01-06T04:38:38.201Z,98580.53
2023-01-06T04:41:10.990Z,98577.94
2023-01-06T04:43:41.247Z,98568.41
2023-01-06T04:46:11.731Z,98573.44
2023-01-06T04:48:41.775Z,98566.75
2023-01-06T04:51:13.926Z,98578.53
2023-01-06T04:53:44.739Z,98572.91
2023-01-06T04:56:17.287Z,98577.31
2023-01-06T04:58:47.248Z,98574.78
2023-01-06T05:01:17.561Z,98568.78
2023-01-06T05:03:47.602Z,98576.28
2023-01-06T05:06:18.175Z,98577.19
2023-01-06T05:08:49.957Z,98578.34
2023-01-06T05:11:25.759Z,98571.63
2023-01-06T05:13:57.103Z,98572.50
2023-01-06T05:16:30.193Z,98573.72
2023-01-06T05:19:01.169Z,98563.09
2023-01-06T05:21:33.170Z,98569.88
2023-01-06T05:24:03.438Z,98568.44
2023-01-06T05:26:35.947Z,98572.91
2023-01-06T05:29:05.942Z,98579.19
2023-01-06T05:31:36.107Z,98573.00
2023-01-06T05:34:06.139Z,98576.59
2023-01-06T05:36:36.070Z,98576.69
2023-01-06T05:39:06.432Z,98572.91
2023-01-06T05:41:39.076Z,98564.50
2023-01-06T05:44:09.002Z,98563.13
2023-01-06T05:46:39.313Z,98559.28
2023-01-06T05:49:09.385Z,98574.81
2023-01-06T05:51:39.372Z,98574.19
2023-01-06T05:54:11.832Z,98567.59
2023-01-06T05:56:44.342Z,98571.00
2023-01-06T05:59:14.314Z,98564.38
2023-01-06T06:01:44.316Z,98564.53
2023-01-06T06:04:15.716Z,98568.13
2023-01-06T06:06:45.639Z,98567.38
2023-01-06T06:09:15.651Z,98557.00
2023-01-06T06:11:51.803Z,98549.72
2023-01-06T06:14:21.789Z,98561.91
2023-01-06T06:16:51.827Z,98569.47
2023-01-06T06:19:22.186Z,98568.22
2023-01-06T06:21:52.359Z,98572.56
2023-01-06T06:24:22.290Z,98568.00
2023-01-06T06:26:54.805Z,98579.25
2023-01-06T06:29:24.784Z,98573.97
2023-01-06T06:31:54.812Z,98578.41
2023-01-06T06:34:24.782Z,98573.09
2023-01-06T06:36:54.716Z,98579.56
2023-01-06T06:39:24.665Z,98588.94
2023-01-06T06:41:57.257Z,98591.91
2023-01-06T06:44:27.233Z,98592.28
2023-01-06T06:46:57.153Z,98590.56
2023-01-06T06:49:27.186Z,98589.66
2023-01-06T06:51:57.120Z,98593.06
2023-01-06T06:54:27.149Z,98591.31
2023-01-06T06:56:59.726Z,98587.56
2023-01-06T06:59:29.688Z,98594.22
2023-01-06T07:01:59.687Z,98587.56
2023-01-06T07:04:29.756Z,98577.09
2023-01-06T07:06:59.985Z,98578.66
2023-01-06T07:09:29.940Z,98592.63
2023-01-06T07:12:02.427Z,98600.41
2023-01-06T07:14:32.417Z,98601.03
2023-01-06T07:17:04.065Z,98594.66
2023-01-06T07:19:33.991Z,98595.63
2023-01-06T07:22:03.920Z,98594.47
2023-01-06T07:24:33.871Z,98596.41
2023-01-06T07:27:06.507Z,98602.56
2023-01-06T07:29:36.435Z,98616.53
2023-01-06T07:32:07.761Z,98614.75
2023-01-06T07:34:39.335Z,98618.94
2023-01-06T07:37:09.271Z,98621.13
2023-01-06T07:39:39.191Z,98611.25
2023-01-06T07:42:14.171Z,98617.22
2023-01-06T07:44:44.228Z,98617.19
2023-01-06T07:47:14.235Z,98622.78
2023-01-06T07:49:44.281Z,98621.63
2023-01-06T07:52:14.249Z,98614.63
2023-01-06T07:54:44.368Z,98614.09
2023-01-06T07:57:18.054Z,98625.44
2023-01-06T07:59:48.147Z,98626.88
2023-01-06T08:02:18.138Z,98634.56
2023-01-06T08:04:48.196Z,98634.56
2023-01-06T08:07:19.011Z,98639.66
2023-01-06T08:09:49.072Z,98632.28
2023-01-06T08:12:21.715Z,98634.16
2023-01-06T08:14:51.661Z,98641.72
2023-01-06T08:17:21.592Z,98644.00
2023-01-06T08:19:51.713Z,98647.59
2023-01-06T08:22:21.697Z,98657.44
2023-01-06T08:24:51.713Z,98656.66
2023-01-06T08:27:25.117Z,98656.91
2023-01-06T08:29:55.444Z,98664.19
2023-01-06T08:32:25.672Z,98670.00
2023-01-06T08:34:55.584Z,98667.97
2023-01-06T08:37:26.024Z,98668.19
2023-01-06T08:39:55.990Z,98674.50
2023-01-06T08:42:28.817Z,98680.28
2023-01-06T08:44:59.726Z,98681.28
2023-01-06T08:47:29.728Z,98679.47
2023-01-06T08:49:59.678Z,98676.31
2023-01-06T08:52:30.099Z,98677.38
2023-01-06T08:55:00.017Z,98680.03
2023-01-06T08:57:32.755Z,98669.75
2023-01-06T09:00:02.682Z,98671.94
2023-01-06T09:02:33.102Z,98680.88
2023-01-06T09:05:03.138Z,98683.06
2023-01-06T09:07:33.307Z,98678.09
2023-01-06T09:10:03.297Z,98693.81
2023-01-06T09:12:36.279Z,98690.38
2023-01-06T09:15:07.388Z,98700.22
2023-01-06T09:17:37.401Z,98705.94
2023-01-06T09:20:09.038Z,98709.72
2023-01-06T09:22:39.493Z,98709.06
2023-01-06T09:25:10.846Z,98708.59
2023-01-06T09:27:43.373Z,98707.91
2023-01-06T09:30:15.690Z,98711.28
2023-01-06T09:32:45.904Z,98710.16
2023-01-06T09:35:15.851Z,98710.00
2023-01-06T09:37:45.846Z,98708.41
2023-01-06T09:40:21.465Z,98717.59
2023-01-06T09:43:15.503Z,98720.22
2023-01-06T09:45:55.337Z,98719.47
2023-01-06T09:48:34.539Z,98727.50
2023-01-06T09:51:08.946Z,98724.50
2023-01-06T09:53:47.396Z,98725.16
2023-01-06T09:56:22.299Z,98733.34
2023-01-06T09:59:09.198Z,98731.81
2023-01-06T10:01:47.397Z,98725.84
2023-01-06T10:04:26.255Z,98718.72
2023-01-06T10:07:16.382Z,98719.19
2023-01-06T10:10:04.606Z,98718.16
2023-01-06T10:12:53.116Z,98726.22
2023-01-06T10:15:38.716Z,98721.41
2023-01-06T10:18:30.295Z,98716.06
2023-01-06T10:21:17.640Z,98706.13
2023-01-06T10:24:26.324Z,98695.19
2023-01-06T10:27:01.644Z,98691.28
2023-01-06T10:29:38.332Z,98693.44
2023-01-06T10:32:19.146Z,98698.28
2023-01-06T10:34:53.635Z,98691.88
2023-01-06T10:37:31.270Z,98683.00
2023-01-06T10:40:18.128Z,98672.47
2023-01-06T10:43:02.559Z,98667.72
2023-01-06T10:45:38.072Z,98656.09
2023-01-06T10:48:16.296Z,98650.38
2023-01-06T10:50:46.698Z,98652.75
2023-01-06T10:53:18.866Z,98649.25
2023-01-06T10:55:55.274Z,98647.28
2023-01-06T10:58:38.353Z,98638.56
2023-01-06T11:01:15.738Z,98635.03
2023-01-06T11:03:48.727Z,98634.47
2023-01-06T11:06:30.675Z,98632.13
2023-01-06T11:09:01.266Z,98629.75
2023-01-06T11:11:31.664Z,98638.22
2023-01-06T11:14:05.692Z,98630.94
2023-01-06T11:16:39.552Z,98634.91
2023-01-06T11:19:26.283Z,98638.81
2023-01-06T11:21:56.274Z,98641.34
2023-01-06T11:24:28.889Z,98637.09
2023-01-06T11:27:01.744Z,98643.66
2023-01-06T11:29:35.228Z,98633.81
2023-01-06T11:32:16.053Z,98633.19
2023-01-06T11:35:02.292Z,98628.53
2023-01-06T11:37:36.187Z,98619.53
2023-01-06T11:40:21.851Z,98619.53
2023-01-06T11:42:55.113Z,98616.81
2023-01-06T11:45:37.180Z,98614.03
2023-01-06T11:48:18.204Z,98623.50
2023-01-06T11:51:00.241Z,98617.13
2023-01-06T11:53:33.590Z,98622.69
2023-01-06T11:56:06.606Z,98623.69
2023-01-06T11:58:54.339Z,98620.72
2023-01-06T12:01:37.705Z,98612.38
2023-01-06T12:04:21.813Z,98622.94
2023-01-06T12:07:01.642Z,98614.25
2023-01-06T12:09:37.854Z,98615.03
2023-01-06T12:12:11.061Z,98614.94
2023-01-06T12:14:42.815Z,98610.47
2023-01-06T12:17:21.001Z,98606.09
2023-01-06T12:19:58.859Z,98600.56
2023-01-06T12:22:40.858Z,98600.69
2023-01-06T12:25:20.360Z,98597.84
2023-01-06T12:27:56.162Z,98595.41
2023-01-06T12:30:36.929Z,98596.31
2023-01-06T12:33:18.560Z,98589.13
2023-01-06T12:35:53.744Z,98583.56
2023-01-06T12:38:45.889Z,98577.13
2023-01-06T12:41:23.594Z,98590.94
2023-01-06T12:44:03.049Z,98581.53
2023-01-06T12:46:48.110Z,98584.84
2023-01-06T12:49:30.911Z,98588.06
2023-01-06T12:52:10.224Z,98582.56
2023-01-06T12:54:53.568Z,98584.59
2023-01-06T12:57:42.161Z,98591.63
2023-01-06T13:00:42.154Z,98579.22
2023-01-06T13:03:43.840Z,98583.28
2023-01-06T13:06:44.787Z,98581.47
2023-01-06T13:09:36.831Z,98578.53
2023-01-06T13:12:29.542Z,98575.81
2023-01-06T13:15:08.935Z,98578.22
2023-01-06T13:17:48.530Z,98571.38
2023-01-06T13:20:26.222Z,98582.03
2023-01-06T13:23:19.619Z,98582.13
2023-01-06T13:26:46.063Z,98581.63
2023-01-06T13:29:40.635Z,98575.13
2023-01-06T13:32:42.563Z,98584.59
2023-01-06T13:35:36.171Z,98580.78
2023-01-06T13:38:34.427Z,98575.03
2023-01-06T13:41:08.684Z,98572.72
2023-01-06T13:43:39.072Z,98577.00
2023-01-06T13:46:17.486Z,98576.75
2023-01-06T13:48:53.609Z,98568.06
2023-01-06T13:51:28.663Z,98578.69
2023-01-06T13:54:00.890Z,98578.25
2023-01-06T13:56:34.406Z,98582.06
2023-01-06T13:59:22.800Z,98587.91
2023-01-06T14:01:59.843Z,98579.28
2023-01-06T14:04:54.257Z,98592.53
2023-01-06T14:07:42.242Z,98595.31
2023-01-06T14:10:39.552Z,98593.16
2023-01-06T14:13:27.312Z,98592.59
2023-01-06T14:16:04.203Z,98592.03
2023-01-06T14:18:46.950Z,98592.13
2023-01-06T14:21:30.453Z,98592.50
2023-01-06T14:24:06.844Z,98592.00
2023-01-06T14:27:00.101Z,98587.53
2023-01-06T14:29:58.039Z,98590.09
2023-01-06T14:33:16.576Z,98593.38
2023-01-06T14:35:50.315Z,98601.47
2023-01-06T14:38:32.972Z,98595.31
2023-01-06T14:41:08.101Z,98598.50
2023-01-06T14:43:52.970Z,98591.94
2023-01-06T14:46:28.519Z,98591.31
2023-01-06T14:49:03.903Z,98587.31
2023-01-06T14:51:39.043Z,98590.84
2023-01-06T14:54:21.338Z,98588.41
2023-01-06T14:56:57.573Z,98596.63
2023-01-06T14:59:28.604Z,98592.84
2023-01-06T15:02:04.009Z,98597.00
2023-01-06T15:04:37.877Z,98603.25
2023-01-06T15:07:21.756Z,98607.63
2023-01-06T15:09:53.801Z,98603.66
2023-01-06T15:12:29.939Z,98607.97
2023-01-06T15:15:16.107Z,98605.53
2023-01-06T15:17:46.462Z,98609.13
2023-01-06T15:20:17.585Z,98610.06
2023-01-06T15:22:53.793Z,98609.97
2023-01-06T15:25:28.283Z,98603.53
2023-01-06T15:27:59.002Z,98611.63
2023-01-06T15:30:36.094Z,98609.25
2023-01-06T15:33:07.363Z,98614.00
2023-01-06T15:35:38.269Z,98614.28
2023-01-06T15:38:29.930Z,98618.75
2023-01-06T15:41:00.359Z,98622.53
2023-01-06T15:43:31.971Z,98626.19
2023-01-06T15:46:09.882Z,98634.06
2023-01-06T15:48:48.959Z,98631.06
2023-01-06T15:51:22.591Z,98630.97
2023-01-06T15:54:01.331Z,98635.91
2023-01-06T15:56:34.155Z,98637.91
2023-01-06T15:59:05.042Z,98631.75
2023-01-06T16:01:35.749Z,98634.28
2023-01-06T16:04:05.960Z,98638.44
2023-01-06T16:06:39.216Z,98638.97
2023-01-06T16:09:38.441Z,98649.13
2023-01-06T16:12:21.378Z,98642.97
2023-01-06T16:14:52.237Z,98645.63
2023-01-06T16:17:32.705Z,98640.00
2023-01-06T16:20:06.707Z,98652.78
2023-01-06T16:22:40.654Z,98651.56
2023-01-06T16:25:31.283Z,98648.47
2023-01-06T16:28:05.020Z,98645.09
2023-01-06T16:30:36.823Z,98638.50
2023-01-06T16:33:08.097Z,98644.59
2023-01-06T16:35:38.259Z,98647.50
2023-01-06T16:38:08.650Z,98651.91
2023-01-06T16:40:41.256Z,98645.56
2023-01-06T16:43:11.820Z,98636.78
2023-01-06T16:45:48.467Z,98633.25
2023-01-06T16:48:20.606Z,98641.69
2023-01-06T16:50:54.929Z,98639.22
2023-01-06T16:53:27.797Z,98645.44
2023-01-06T16:56:01.423Z,98634.75
2023-01-06T16:58:34.055Z,98647.75
2023-01-06T17:01:16.503Z,98642.97
2023-01-06T17:03:51.222Z,98639.22
2023-01-06T17:06:24.945Z,98632.75
2023-01-06T17:08:58.527Z,98637.47
2023-01-06T17:11:38.481Z,98637.19
2023-01-06T17:14:18.220Z,98634.84
2023-01-06T17:16:50.680Z,98640.84
2023-01-06T17:19:26.657Z,98648.47
2023-01-06T17:22:05.956Z,98644.47
2023-01-06T17:24:38.290Z,98644.13
2023-01-06T17:27:24.834Z,98639.38
2023-01-06T17:29:56.673Z,98640.91
2023-01-06T17:32:37.284Z,98636.44
2023-01-06T17:35:27.672Z,98633.59
2023-01-06T17:38:01.781Z,98627.03
2023-01-06T17:40:38.460Z,98641.28
2023-01-06T17:43:33.561Z,98631.31
2023-01-06T17:46:04.188Z,98633.59
2023-01-06T17:48:35.563Z,98631.88
2023-01-06T17:51:06.408Z,98634.75
2023-01-06T17:53:52.388Z,98629.22
2023-01-06T17:56:26.242Z,98628.25
2023-01-06T17:59:10.792Z,98624.47
2023-01-06T18:01:40.974Z,98630.41
2023-01-06T18:04:17.056Z,98629.97
2023-01-06T18:06:52.963Z,98630.16
2023-01-06T18:09:25.747Z,98634.91
2023-01-06T18:12:03.274Z,98639.06
2023-01-06T18:14:42.634Z,98636.47
2023-01-06T18:17:27.564Z,98637.19
2023-01-06T18:19:58.025Z,98639.34
2023-01-06T18:22:33.336Z,98650.63
2023-01-06T18:25:05.048Z,98650.16
2023-01-06T18:27:38.349Z,98645.06
2023-01-06T18:30:23.979Z,98656.03
2023-01-06T18:32:55.458Z,98655.41
2023-01-06T18:35:30.006Z,98659.88
2023-01-06T18:38:05.896Z,98653.81
2023-01-06T18:40:36.331Z,98662.38
2023-01-06T18:43:27.876Z,98660.13
2023-01-06T18:46:05.223Z,98656.75
2023-01-06T18:48:39.410Z,98648.53
2023-01-06T18:51:22.124Z,98664.25
2023-01-06T18:53:54.751Z,98657.88
2023-01-06T18:56:29.362Z,98657.34
2023-01-06T18:59:01.842Z,98663.22
2023-01-06T19:01:47.447Z,98659.44
2023-01-06T19:04:29.044Z,98653.31
2023-01-06T19:07:03.617Z,98655.53
2023-01-06T19:09:39.172Z,98648.22
2023-01-06T19:12:27.471Z,98641.72
2023-01-06T19:15:00.974Z,98645.81
2023-01-06T19:17:39.667Z,98653.03
2023-01-06T19:20:19.527Z,98653.56
2023-01-06T19:22:51.049Z,98643.59
2023-01-06T19:25:33.787Z,98641.28
2023-01-06T19:28:13.871Z,98641.44
2023-01-06T19:30:50.391Z,98644.19
2023-01-06T19:33:40.537Z,98640.50
2023-01-06T19:36:42.812Z,98643.59
2023-01-06T19:39:33.148Z,98642.81
2023-01-06T19:42:27.518Z,98652.41
2023-01-06T19:45:27.152Z,98649.09
2023-01-06T19:47:57.542Z,98651.81
2023-01-06T19:50:30.611Z,98658.47
2023-01-06T19:53:03.259Z,98662.94
2023-01-06T19:55:35.691Z,98663.28
2023-01-06T19:58:18.006Z,98660.63
2023-01-06T20:00:52.780Z,98656.66
2023-01-06T20:03:32.084Z,98662.78
2023-01-06T20:06:05.322Z,98665.47
2023-01-06T20:08:35.455Z,98666.00
2023-01-06T20:11:05.460Z,98664.78
2023-01-06T20:13:35.515Z,98655.63
2023-01-06T20:16:05.714Z,98663.56
2023-01-06T20:18:35.870Z,98670.91
2023-01-06T20:21:10.205Z,98659.03
2023-01-06T20:23:40.530Z,98660.13
2023-01-06T20:26:10.921Z,98663.31
2023-01-06T20:28:40.908Z,98656.38
2023-01-06T20:31:11.235Z,98656.81
2023-01-06T20:33:41.483Z,98651.84
2023-01-06T20:36:17.305Z,98653.72
2023-01-06T20:38:48.039Z,98656.72
2023-01-06T20:41:18.185Z,98659.84
2023-01-06T20:43:48.263Z,98656.31
2023-01-06T20:46:18.785Z,98655.97
2023-01-06T20:48:51.266Z,98656.66
2023-01-06T20:51:26.790Z,98652.50
2023-01-06T20:53:56.983Z,98648.28
2023-01-06T20:56:27.514Z,98653.44
2023-01-06T20:58:57.664Z,98644.78
2023-01-06T21:01:27.845Z,98639.47
2023-01-06T21:03:58.170Z,98638.78
2023-01-06T21:06:30.873Z,98634.38
2023-01-06T21:09:00.999Z,98639.13
2023-01-06T21:11:31.482Z,98639.59
2023-01-06T21:14:02.533Z,98636.53
2023-01-06T21:16:32.817Z,98638.41
2023-01-06T21:19:04.612Z,98641.41
2023-01-06T21:21:38.985Z,98645.25
2023-01-06T21:24:10.355Z,98638.56
2023-01-06T21:26:40.605Z,98642.63
2023-01-06T21:29:10.838Z,98645.13
2023-01-06T21:31:41.711Z,98631.41
2023-01-06T21:34:12.047Z,98633.06
2023-01-06T21:36:45.061Z,98634.28
2023-01-06T21:39:15.383Z,98639.81
2023-01-06T21:41:57.897Z,98638.44
2023-01-06T21:44:28.045Z,98636.25
2023-01-06T21:46:59.737Z,98634.78
2023-01-06T21:49:30.496Z,98633.34
2023-01-06T21:52:06.071Z,98634.13
2023-01-06T21:54:36.364Z,98629.69
2023-01-06T21:57:06.763Z,98629.38
2023-01-06T21:59:37.070Z,98631.94
2023-01-06T22:02:07.878Z,98629.97
2023-01-06T22:04:38.426Z,98629.97
2023-01-06T22:07:12.650Z,98629.00
2023-01-06T22:09:47.434Z,98638.91
2023-01-06T22:12:22.848Z,98635.63
2023-01-06T22:14:57.018Z,98641.84
2023-01-06T22:17:27.677Z,98635.84
2023-01-06T22:19:58.874Z,98628.13
2023-01-06T22:22:33.322Z,98637.44
2023-01-06T22:25:05.629Z,98638.69
2023-01-06T22:27:36.556Z,98640.47
2023-01-06T22:30:08.519Z,98628.03
2023-01-06T22:32:46.328Z,98625.78
2023-01-06T22:35:20.983Z,98628.13
2023-01-06T22:37:54.179Z,98626.22
2023-01-06T22:40:24.566Z,98629.75
2023-01-06T22:42:54.939Z,98623.19
2023-01-06T22:45:25.151Z,98621.28
2023-01-06T22:47:55.409Z,98618.53
2023-01-06T22:50:25.968Z,98619.00
2023-01-06T22:52:59.693Z,98614.59
2023-01-06T22:55:30.077Z,98615.72
2023-01-06T22:58:00.116Z,98610.56
2023-01-06T23:00:30.833Z,98608.50
2023-01-06T23:03:01.030Z,98609.09
2023-01-06T23:05:31.035Z,98607.34
2023-01-06T23:08:03.696Z,98602.28
2023-01-06T23:10:35.132Z,98612.88
2023-01-06T23:13:05.198Z,98611.75
2023-01-06T23:15:35.443Z,98617.97
2023-01-06T23:18:06.289Z,98617.28
2023-01-06T23:20:36.482Z,98613.00
2023-01-06T23:23:09.181Z,98613.00
2023-01-06T23:25:39.379Z,98613.53
2023-01-06T23:28:09.396Z,98607.81
2023-01-06T23:30:39.423Z,98604.97
2023-01-06T23:33:09.521Z,98603.13
2023-01-06T23:35:39.505Z,98601.84
2023-01-06T23:38:12.416Z,98599.66
2023-01-06T23:40:42.509Z,98605.66
2023-01-06T23:43:12.486Z,98604.63
2023-01-06T23:45:42.976Z,98601.59
2023-01-06T23:48:13.163Z,98593.97
2023-01-06T23:50:51.588Z,98596.94
2023-01-06T23:53:24.650Z,98595.34
2023-01-06T23:55:59.807Z,98593.34
2023-01-06T23:58:32.938Z,98598.41
